Inman, Nebraska
Current Conditions -  °F | °C
As of 12:35 PM on Thursday 27 Nov 2014 (Local Time) from KONL Reporting Station
Clear Clear  
Wind Chill: 13°   Ceiling: Unl
Heat Index: 25°   Visibility: 10mi
Dew Point: 15°   Wind: 16mph
Humidity: 65%   Direction: 140°SE
Pressure: 30.24"   Gusts: 22mph
Location:  42.38°N, 98.53°W
Report Text: KONL 271835Z AUTO 14014G19KT 10SM CLR M04/M09 A3024 RMK AO2 T10371095
Loading
Personal Weather Stations






























Interactive Weather Map New forecast layout! Learn more

10-Day Weather Forecast

Advertisements
Track Severe Weather on mobile